Lake Lincoln, Indiana
Current Conditions -  °F | °C
As of 8:55 AM on Monday 22 Dec 2014 (Local Time) from KHNB Reporting Station
Overcast Overcast  
Wind Chill:   Ceiling: 3100
Heat Index:   Visibility: 10mi
Dew Point:   Wind: 8mph
Humidity: 76%   Direction: 150°SSE
Pressure: 29.92"   Gusts: NA
Location:  38.1283°N, 86.9862°W
Report Text: KHNB 221455Z AUTO 15007KT 10SM OVC031 06/02 A2992 RMK AO1 57007
Loading
Personal Weather Stations






























Interactive Weather Map New forecast layout! Learn more

10-Day Weather Forecast

Advertisements
Track Severe Weather on mobile